sensor_id;sensor_type;location;lat;lon;timestamp;temperature;humidity
46356;DHT22;32066;49.474;11.106;2023-05-07T00:00:52;17.40;86.20
46356;DHT22;32066;49.474;11.106;2023-05-07T00:03:23;17.40;86.40
46356;DHT22;32066;49.474;11.106;2023-05-07T00:05:52;17.30;86.50
46356;DHT22;32066;49.474;11.106;2023-05-07T00:08:21;17.30;86.60
46356;DHT22;32066;49.474;11.106;2023-05-07T00:10:50;17.30;86.60
46356;DHT22;32066;49.474;11.106;2023-05-07T00:13:19;17.30;86.40
46356;DHT22;32066;49.474;11.106;2023-05-07T00:15:47;17.40;86.40
46356;DHT22;32066;49.474;11.106;2023-05-07T00:18:16;17.40;86.10
46356;DHT22;32066;49.474;11.106;2023-05-07T00:20:49;17.40;86.30
46356;DHT22;32066;49.474;11.106;2023-05-07T00:23:18;17.30;86.00
46356;DHT22;32066;49.474;11.106;2023-05-07T00:25:46;17.40;85.80
46356;DHT22;32066;49.474;11.106;2023-05-07T00:28:15;17.40;85.80
46356;DHT22;32066;49.474;11.106;2023-05-07T00:30:43;17.40;85.90
46356;DHT22;32066;49.474;11.106;2023-05-07T00:33:12;17.40;85.90
46356;DHT22;32066;49.474;11.106;2023-05-07T00:35:42;17.30;86.20
46356;DHT22;32066;49.474;11.106;2023-05-07T00:38:13;17.50;85.90
46356;DHT22;32066;49.474;11.106;2023-05-07T00:40:42;17.40;85.70
46356;DHT22;32066;49.474;11.106;2023-05-07T00:43:11;17.50;85.60
46356;DHT22;32066;49.474;11.106;2023-05-07T00:45:39;17.50;85.70
46356;DHT22;32066;49.474;11.106;2023-05-07T00:48:08;17.40;85.60
46356;DHT22;32066;49.474;11.106;2023-05-07T00:50:37;17.40;85.60
46356;DHT22;32066;49.474;11.106;2023-05-07T00:53:06;17.40;85.80
46356;DHT22;32066;49.474;11.106;2023-05-07T00:55:38;17.30;85.90
46356;DHT22;32066;49.474;11.106;2023-05-07T00:58:07;17.40;85.50
46356;DHT22;32066;49.474;11.106;2023-05-07T01:00:36;17.50;85.30
46356;DHT22;32066;49.474;11.106;2023-05-07T01:03:05;17.40;85.60
46356;DHT22;32066;49.474;11.106;2023-05-07T01:05:34;17.50;85.30
46356;DHT22;32066;49.474;11.106;2023-05-07T01:08:04;17.40;85.50
46356;DHT22;32066;49.474;11.106;2023-05-07T01:10:33;17.40;85.60
46356;DHT22;32066;49.474;11.106;2023-05-07T01:13:05;17.30;85.70
46356;DHT22;32066;49.474;11.106;2023-05-07T01:15:34;17.20;86.00
46356;DHT22;32066;49.474;11.106;2023-05-07T01:18:03;17.20;86.20
46356;DHT22;32066;49.474;11.106;2023-05-07T01:20:34;17.20;86.20
46356;DHT22;32066;49.474;11.106;2023-05-07T01:23:07;17.20;86.10
46356;DHT22;32066;49.474;11.106;2023-05-07T01:25:36;17.20;86.40
46356;DHT22;32066;49.474;11.106;2023-05-07T01:28:05;17.20;86.30
46356;DHT22;32066;49.474;11.106;2023-05-07T01:30:37;17.30;86.20
46356;DHT22;32066;49.474;11.106;2023-05-07T01:33:11;17.30;86.00
46356;DHT22;32066;49.474;11.106;2023-05-07T01:35:43;17.30;86.20
46356;DHT22;32066;49.474;11.106;2023-05-07T01:38:16;17.30;86.00
46356;DHT22;32066;49.474;11.106;2023-05-07T01:40:45;17.20;86.50
46356;DHT22;32066;49.474;11.106;2023-05-07T01:43:14;17.20;86.50
46356;DHT22;32066;49.474;11.106;2023-05-07T01:45:43;17.10;87.00
46356;DHT22;32066;49.474;11.106;2023-05-07T01:48:15;17.10;86.90
46356;DHT22;32066;49.474;11.106;2023-05-07T01:50:44;17.10;86.90
46356;DHT22;32066;49.474;11.106;2023-05-07T01:53:15;17.10;86.90
46356;DHT22;32066;49.474;11.106;2023-05-07T01:55:44;17.00;87.10
46356;DHT22;32066;49.474;11.106;2023-05-07T01:58:14;17.10;86.90
46356;DHT22;32066;49.474;11.106;2023-05-07T02:00:42;17.20;86.90
46356;DHT22;32066;49.474;11.106;2023-05-07T02:03:11;17.20;86.80
46356;DHT22;32066;49.474;11.106;2023-05-07T02:05:51;17.20;86.80
46356;DHT22;32066;49.474;11.106;2023-05-07T02:08:37;17.10;87.10
46356;DHT22;32066;49.474;11.106;2023-05-07T02:11:06;17.00;87.30
46356;DHT22;32066;49.474;11.106;2023-05-07T02:13:35;17.00;87.20
46356;DHT22;32066;49.474;11.106;2023-05-07T02:16:05;17.00;87.70
46356;DHT22;32066;49.474;11.106;2023-05-07T02:18:34;16.90;87.90
46356;DHT22;32066;49.474;11.106;2023-05-07T02:21:04;16.90;88.20
46356;DHT22;32066;49.474;11.106;2023-05-07T02:23:33;16.90;87.90
46356;DHT22;32066;49.474;11.106;2023-05-07T02:26:04;17.00;87.70
46356;DHT22;32066;49.474;11.106;2023-05-07T02:28:33;16.90;88.20
46356;DHT22;32066;49.474;11.106;2023-05-07T02:31:04;16.90;88.10
46356;DHT22;32066;49.474;11.106;2023-05-07T02:33:34;16.90;88.20
46356;DHT22;32066;49.474;11.106;2023-05-07T02:36:06;16.80;88.40
46356;DHT22;32066;49.474;11.106;2023-05-07T02:38:39;16.80;88.60
46356;DHT22;32066;49.474;11.106;2023-05-07T02:41:10;16.70;89.00
46356;DHT22;32066;49.474;11.106;2023-05-07T02:43:39;16.60;88.90
46356;DHT22;32066;49.474;11.106;2023-05-07T02:46:09;16.80;88.80
46356;DHT22;32066;49.474;11.106;2023-05-07T02:48:42;16.80;88.60
46356;DHT22;32066;49.474;11.106;2023-05-07T02:51:11;16.80;88.70
46356;DHT22;32066;49.474;11.106;2023-05-07T02:53:41;16.60;88.90
46356;DHT22;32066;49.474;11.106;2023-05-07T02:56:12;16.80;88.80
46356;DHT22;32066;49.474;11.106;2023-05-07T02:58:41;16.80;88.70
46356;DHT22;32066;49.474;11.106;2023-05-07T03:01:11;16.70;88.80
46356;DHT22;32066;49.474;11.106;2023-05-07T03:04:06;16.70;88.80
46356;DHT22;32066;49.474;11.106;2023-05-07T03:06:35;16.60;89.40
46356;DHT22;32066;49.474;11.106;2023-05-07T03:09:04;16.40;90.00
46356;DHT22;32066;49.474;11.106;2023-05-07T03:11:35;16.40;89.80
46356;DHT22;32066;49.474;11.106;2023-05-07T03:14:04;16.40;90.00
46356;DHT22;32066;49.474;11.106;2023-05-07T03:16:32;16.30;90.10
46356;DHT22;32066;49.474;11.106;2023-05-07T03:19:01;16.40;90.10
46356;DHT22;32066;49.474;11.106;2023-05-07T03:21:30;16.30;90.30
46356;DHT22;32066;49.474;11.106;2023-05-07T03:24:00;16.30;90.30
46356;DHT22;32066;49.474;11.106;2023-05-07T03:26:29;16.30;90.30
46356;DHT22;32066;49.474;11.106;2023-05-07T03:29:00;16.40;90.30
46356;DHT22;32066;49.474;11.106;2023-05-07T03:31:28;16.30;90.30
46356;DHT22;32066;49.474;11.106;2023-05-07T03:33:57;16.30;90.40
46356;DHT22;32066;49.474;11.106;2023-05-07T03:36:26;16.20;90.50
46356;DHT22;32066;49.474;11.106;2023-05-07T03:38:56;16.30;90.50
46356;DHT22;32066;49.474;11.106;2023-05-07T03:41:33;16.20;90.50
46356;DHT22;32066;49.474;11.106;2023-05-07T03:44:04;16.20;90.70
46356;DHT22;32066;49.474;11.106;2023-05-07T03:46:33;16.10;90.70
46356;DHT22;32066;49.474;11.106;2023-05-07T03:49:02;16.10;90.90
46356;DHT22;32066;49.474;11.106;2023-05-07T03:51:31;16.20;90.80
46356;DHT22;32066;49.474;11.106;2023-05-07T03:54:03;16.10;90.80
46356;DHT22;32066;49.474;11.106;2023-05-07T03:56:32;16.20;90.90
46356;DHT22;32066;49.474;11.106;2023-05-07T03:59:04;16.20;90.80
46356;DHT22;32066;49.474;11.106;2023-05-07T04:01:32;16.10;91.20
46356;DHT22;32066;49.474;11.106;2023-05-07T04:04:01;16.00;91.00
46356;DHT22;32066;49.474;11.106;2023-05-07T04:08:59;16.00;91.10
46356;DHT22;32066;49.474;11.106;2023-05-07T04:11:28;16.10;91.10
46356;DHT22;32066;49.474;11.106;2023-05-07T04:13:57;15.90;91.40
46356;DHT22;32066;49.474;11.106;2023-05-07T04:16:28;16.00;91.30
46356;DHT22;32066;49.474;11.106;2023-05-07T04:18:57;16.00;91.30
46356;DHT22;32066;49.474;11.106;2023-05-07T04:21:26;16.00;91.30
46356;DHT22;32066;49.474;11.106;2023-05-07T04:23:56;15.90;91.50
46356;DHT22;32066;49.474;11.106;2023-05-07T04:26:25;16.00;91.40
46356;DHT22;32066;49.474;11.106;2023-05-07T04:28:54;16.00;91.50
46356;DHT22;32066;49.474;11.106;2023-05-07T04:31:24;15.90;91.70
46356;DHT22;32066;49.474;11.106;2023-05-07T04:33:56;15.90;91.70
46356;DHT22;32066;49.474;11.106;2023-05-07T04:36:26;16.00;91.80
46356;DHT22;32066;49.474;11.106;2023-05-07T04:38:59;16.00;91.70
46356;DHT22;32066;49.474;11.106;2023-05-07T04:41:28;16.10;91.70
46356;DHT22;32066;49.474;11.106;2023-05-07T04:43:58;16.00;91.80
46356;DHT22;32066;49.474;11.106;2023-05-07T04:46:30;16.00;91.80
46356;DHT22;32066;49.474;11.106;2023-05-07T04:49:01;16.00;92.00
46356;DHT22;32066;49.474;11.106;2023-05-07T04:51:31;15.90;92.00
46356;DHT22;32066;49.474;11.106;2023-05-07T04:54:00;15.90;92.10
46356;DHT22;32066;49.474;11.106;2023-05-07T04:56:30;16.00;92.30
46356;DHT22;32066;49.474;11.106;2023-05-07T04:59:00;16.00;92.30
46356;DHT22;32066;49.474;11.106;2023-05-07T05:01:30;16.00;92.30
46356;DHT22;32066;49.474;11.106;2023-05-07T05:04:01;16.10;92.20
46356;DHT22;32066;49.474;11.106;2023-05-07T05:06:30;16.00;92.20
46356;DHT22;32066;49.474;11.106;2023-05-07T05:09:01;16.00;92.30
46356;DHT22;32066;49.474;11.106;2023-05-07T05:11:31;16.00;92.50
46356;DHT22;32066;49.474;11.106;2023-05-07T05:13:59;16.00;92.40
46356;DHT22;32066;49.474;11.106;2023-05-07T05:16:28;16.00;92.40
46356;DHT22;32066;49.474;11.106;2023-05-07T05:18:57;16.10;92.30
46356;DHT22;32066;49.474;11.106;2023-05-07T05:21:29;16.20;92.30
46356;DHT22;32066;49.474;11.106;2023-05-07T05:24:04;16.40;92.10
46356;DHT22;32066;49.474;11.106;2023-05-07T05:26:33;16.40;92.00
46356;DHT22;32066;49.474;11.106;2023-05-07T05:29:02;16.50;92.00
46356;DHT22;32066;49.474;11.106;2023-05-07T05:31:32;16.60;92.10
46356;DHT22;32066;49.474;11.106;2023-05-07T05:34:01;16.60;91.80
46356;DHT22;32066;49.474;11.106;2023-05-07T05:36:34;16.80;91.70
46356;DHT22;32066;49.474;11.106;2023-05-07T05:39:03;16.90;91.50
46356;DHT22;32066;49.474;11.106;2023-05-07T05:41:32;17.00;91.40
46356;DHT22;32066;49.474;11.106;2023-05-07T05:44:02;17.00;91.50
46356;DHT22;32066;49.474;11.106;2023-05-07T05:46:30;17.00;91.40
46356;DHT22;32066;49.474;11.106;2023-05-07T05:48:59;17.10;91.20
46356;DHT22;32066;49.474;11.106;2023-05-07T05:51:28;17.10;91.10
46356;DHT22;32066;49.474;11.106;2023-05-07T05:53:59;16.90;91.30
46356;DHT22;32066;49.474;11.106;2023-05-07T05:56:28;16.90;91.30
46356;DHT22;32066;49.474;11.106;2023-05-07T05:58:57;16.90;91.40
46356;DHT22;32066;49.474;11.106;2023-05-07T06:01:26;16.90;91.60
46356;DHT22;32066;49.474;11.106;2023-05-07T06:03:56;17.00;91.50
46356;DHT22;32066;49.474;11.106;2023-05-07T06:06:25;16.90;91.50
46356;DHT22;32066;49.474;11.106;2023-05-07T06:08:54;17.10;91.30
46356;DHT22;32066;49.474;11.106;2023-05-07T06:11:32;17.10;91.20
46356;DHT22;32066;49.474;11.106;2023-05-07T06:14:00;17.10;91.20
46356;DHT22;32066;49.474;11.106;2023-05-07T06:16:30;17.10;91.20
46356;DHT22;32066;49.474;11.106;2023-05-07T06:18:59;17.00;91.30
46356;DHT22;32066;49.474;11.106;2023-05-07T06:21:27;17.20;91.40
46356;DHT22;32066;49.474;11.106;2023-05-07T06:23:56;17.20;91.30
46356;DHT22;32066;49.474;11.106;2023-05-07T06:26:25;17.30;91.10
46356;DHT22;32066;49.474;11.106;2023-05-07T06:28:56;17.40;91.10
46356;DHT22;32066;49.474;11.106;2023-05-07T06:31:30;17.30;91.30
46356;DHT22;32066;49.474;11.106;2023-05-07T06:34:03;17.40;91.30
46356;DHT22;32066;49.474;11.106;2023-05-07T06:36:35;17.50;91.10
46356;DHT22;32066;49.474;11.106;2023-05-07T06:39:18;17.60;90.90
46356;DHT22;32066;49.474;11.106;2023-05-07T06:41:47;17.60;91.00
46356;DHT22;32066;49.474;11.106;2023-05-07T06:44:26;17.70;91.00
46356;DHT22;32066;49.474;11.106;2023-05-07T06:47:07;17.80;90.80
46356;DHT22;32066;49.474;11.106;2023-05-07T06:49:38;17.80;90.70
46356;DHT22;32066;49.474;11.106;2023-05-07T06:52:07;17.90;90.80
46356;DHT22;32066;49.474;11.106;2023-05-07T06:54:35;17.90;90.60
46356;DHT22;32066;49.474;11.106;2023-05-07T06:57:04;18.00;90.70
46356;DHT22;32066;49.474;11.106;2023-05-07T06:59:36;18.10;90.80
46356;DHT22;32066;49.474;11.106;2023-05-07T07:02:05;18.10;90.60
46356;DHT22;32066;49.474;11.106;2023-05-07T07:04:34;18.10;90.60
46356;DHT22;32066;49.474;11.106;2023-05-07T07:07:07;18.20;90.70
46356;DHT22;32066;49.474;11.106;2023-05-07T07:09:36;18.20;90.80
46356;DHT22;32066;49.474;11.106;2023-05-07T07:12:06;18.40;90.60
46356;DHT22;32066;49.474;11.106;2023-05-07T07:14:39;18.60;90.60
46356;DHT22;32066;49.474;11.106;2023-05-07T07:17:08;18.60;90.40
46356;DHT22;32066;49.474;11.106;2023-05-07T07:19:37;18.70;90.10
46356;DHT22;32066;49.474;11.106;2023-05-07T07:22:06;18.70;90.00
46356;DHT22;32066;49.474;11.106;2023-05-07T07:24:35;18.80;90.10
46356;DHT22;32066;49.474;11.106;2023-05-07T07:27:06;18.80;90.40
46356;DHT22;32066;49.474;11.106;2023-05-07T07:29:35;18.90;90.10
46356;DHT22;32066;49.474;11.106;2023-05-07T07:32:08;19.10;90.40
46356;DHT22;32066;49.474;11.106;2023-05-07T07:34:36;19.30;89.90
46356;DHT22;32066;49.474;11.106;2023-05-07T07:37:06;19.50;89.10
46356;DHT22;32066;49.474;11.106;2023-05-07T07:39:36;19.70;88.90
46356;DHT22;32066;49.474;11.106;2023-05-07T07:42:07;19.90;88.40
46356;DHT22;32066;49.474;11.106;2023-05-07T07:44:37;20.00;87.70
46356;DHT22;32066;49.474;11.106;2023-05-07T07:47:11;20.10;86.90
46356;DHT22;32066;49.474;11.106;2023-05-07T07:49:41;20.10;86.50
46356;DHT22;32066;49.474;11.106;2023-05-07T07:52:10;20.10;86.60
46356;DHT22;32066;49.474;11.106;2023-05-07T07:54:41;20.10;86.80
46356;DHT22;32066;49.474;11.106;2023-05-07T07:57:09;20.10;86.90
46356;DHT22;32066;49.474;11.106;2023-05-07T07:59:38;20.10;87.40
46356;DHT22;32066;49.474;11.106;2023-05-07T08:02:11;20.20;87.40
46356;DHT22;32066;49.474;11.106;2023-05-07T08:04:40;20.00;87.00
46356;DHT22;32066;49.474;11.106;2023-05-07T08:07:09;20.10;87.90
46356;DHT22;32066;49.474;11.106;2023-05-07T08:09:41;20.00;87.40
46356;DHT22;32066;49.474;11.106;2023-05-07T08:12:10;20.00;88.70
46356;DHT22;32066;49.474;11.106;2023-05-07T08:14:39;20.10;87.30
46356;DHT22;32066;49.474;11.106;2023-05-07T08:17:11;20.20;87.30
46356;DHT22;32066;49.474;11.106;2023-05-07T08:19:41;20.20;87.10
46356;DHT22;32066;49.474;11.106;2023-05-07T08:22:12;20.20;87.40
46356;DHT22;32066;49.474;11.106;2023-05-07T08:24:46;20.20;87.00
46356;DHT22;32066;49.474;11.106;2023-05-07T08:27:14;20.40;87.40
46356;DHT22;32066;49.474;11.106;2023-05-07T08:29:43;20.30;87.10
46356;DHT22;32066;49.474;11.106;2023-05-07T08:32:19;20.40;87.10
46356;DHT22;32066;49.474;11.106;2023-05-07T08:34:47;20.50;86.60
46356;DHT22;32066;49.474;11.106;2023-05-07T08:37:16;20.60;86.80
46356;DHT22;32066;49.474;11.106;2023-05-07T08:39:45;20.80;86.30
46356;DHT22;32066;49.474;11.106;2023-05-07T08:42:21;20.80;86.20
46356;DHT22;32066;49.474;11.106;2023-05-07T08:44:51;20.90;86.00
46356;DHT22;32066;49.474;11.106;2023-05-07T08:47:30;21.00;85.30
46356;DHT22;32066;49.474;11.106;2023-05-07T08:50:02;21.20;85.10
46356;DHT22;32066;49.474;11.106;2023-05-07T08:52:30;21.20;84.70
46356;DHT22;32066;49.474;11.106;2023-05-07T08:55:00;21.30;84.60
46356;DHT22;32066;49.474;11.106;2023-05-07T08:57:30;21.40;84.50
46356;DHT22;32066;49.474;11.106;2023-05-07T08:59:59;21.60;84.60
46356;DHT22;32066;49.474;11.106;2023-05-07T09:02:31;21.70;83.10
46356;DHT22;32066;49.474;11.106;2023-05-07T09:05:00;21.80;82.90
46356;DHT22;32066;49.474;11.106;2023-05-07T09:07:30;21.90;82.60
46356;DHT22;32066;49.474;11.106;2023-05-07T09:10:01;22.00;82.90
46356;DHT22;32066;49.474;11.106;2023-05-07T09:12:31;22.20;82.90
46356;DHT22;32066;49.474;11.106;2023-05-07T09:15:01;22.30;82.20
46356;DHT22;32066;49.474;11.106;2023-05-07T09:17:34;22.30;81.50
46356;DHT22;32066;49.474;11.106;2023-05-07T09:20:03;22.40;81.60
46356;DHT22;32066;49.474;11.106;2023-05-07T09:22:33;22.50;81.10
46356;DHT22;32066;49.474;11.106;2023-05-07T09:25:06;22.60;80.90
46356;DHT22;32066;49.474;11.106;2023-05-07T09:27:37;22.70;81.30
46356;DHT22;32066;49.474;11.106;2023-05-07T09:30:07;22.70;81.10
46356;DHT22;32066;49.474;11.106;2023-05-07T09:32:39;22.80;81.10
46356;DHT22;32066;49.474;11.106;2023-05-07T09:35:17;22.80;80.60
46356;DHT22;32066;49.474;11.106;2023-05-07T09:37:52;22.80;79.90
46356;DHT22;32066;49.474;11.106;2023-05-07T09:40:22;22.70;79.60
46356;DHT22;32066;49.474;11.106;2023-05-07T09:42:53;22.90;79.90
46356;DHT22;32066;49.474;11.106;2023-05-07T09:45:24;23.10;80.00
46356;DHT22;32066;49.474;11.106;2023-05-07T09:47:57;23.40;80.30
46356;DHT22;32066;49.474;11.106;2023-05-07T09:50:28;23.50;79.50
46356;DHT22;32066;49.474;11.106;2023-05-07T09:52:57;23.50;78.30
46356;DHT22;32066;49.474;11.106;2023-05-07T09:55:27;23.50;78.10
46356;DHT22;32066;49.474;11.106;2023-05-07T09:57:57;23.60;78.30
46356;DHT22;32066;49.474;11.106;2023-05-07T10:00:29;23.60;77.70
46356;DHT22;32066;49.474;11.106;2023-05-07T10:03:09;23.60;77.40
46356;DHT22;32066;49.474;11.106;2023-05-07T10:05:48;23.60;76.90
46356;DHT22;32066;49.474;11.106;2023-05-07T10:08:19;23.70;77.50
46356;DHT22;32066;49.474;11.106;2023-05-07T10:10:51;23.80;77.60
46356;DHT22;32066;49.474;11.106;2023-05-07T10:13:23;24.00;77.20
46356;DHT22;32066;49.474;11.106;2023-05-07T10:15:55;24.10;77.10
46356;DHT22;32066;49.474;11.106;2023-05-07T10:18:31;24.20;76.30
46356;DHT22;32066;49.474;11.106;2023-05-07T10:21:08;24.30;75.80
46356;DHT22;32066;49.474;11.106;2023-05-07T10:23:40;24.40;75.60
46356;DHT22;32066;49.474;11.106;2023-05-07T10:26:11;24.50;74.70
46356;DHT22;32066;49.474;11.106;2023-05-07T10:28:44;24.50;75.10
46356;DHT22;32066;49.474;11.106;2023-05-07T10:31:23;24.50;73.50
46356;DHT22;32066;49.474;11.106;2023-05-07T10:34:01;24.50;73.30
46356;DHT22;32066;49.474;11.106;2023-05-07T10:36:35;24.70;73.30
46356;DHT22;32066;49.474;11.106;2023-05-07T10:39:06;24.80;74.00
46356;DHT22;32066;49.474;11.106;2023-05-07T10:41:36;25.00;73.30
46356;DHT22;32066;49.474;11.106;2023-05-07T10:44:05;25.20;72.90
46356;DHT22;32066;49.474;11.106;2023-05-07T10:46:35;25.40;71.70
46356;DHT22;32066;49.474;11.106;2023-05-07T10:49:24;25.40;71.20
46356;DHT22;32066;49.474;11.106;2023-05-07T10:52:11;25.20;70.50
46356;DHT22;32066;49.474;11.106;2023-05-07T10:54:47;25.10;70.70
46356;DHT22;32066;49.474;11.106;2023-05-07T10:57:36;25.10;70.90
46356;DHT22;32066;49.474;11.106;2023-05-07T11:03:20;25.00;69.60
46356;DHT22;32066;49.474;11.106;2023-05-07T11:06:12;24.80;70.50
46356;DHT22;32066;49.474;11.106;2023-05-07T11:08:58;25.00;69.80
46356;DHT22;32066;49.474;11.106;2023-05-07T11:11:47;24.90;69.20
46356;DHT22;32066;49.474;11.106;2023-05-07T11:14:45;25.10;69.60
46356;DHT22;32066;49.474;11.106;2023-05-07T11:17:31;25.50;69.60
46356;DHT22;32066;49.474;11.106;2023-05-07T11:20:05;25.60;68.40
46356;DHT22;32066;49.474;11.106;2023-05-07T11:22:49;25.70;68.10
46356;DHT22;32066;49.474;11.106;2023-05-07T11:25:31;25.70;68.30
46356;DHT22;32066;49.474;11.106;2023-05-07T11:28:10;25.60;68.10
46356;DHT22;32066;49.474;11.106;2023-05-07T11:30:45;25.60;67.50
46356;DHT22;32066;49.474;11.106;2023-05-07T11:33:17;25.50;67.80
46356;DHT22;32066;49.474;11.106;2023-05-07T11:35:50;25.50;67.20
46356;DHT22;32066;49.474;11.106;2023-05-07T11:38:25;25.30;67.90
46356;DHT22;32066;49.474;11.106;2023-05-07T11:40:55;25.30;68.40
46356;DHT22;32066;49.474;11.106;2023-05-07T11:43:24;25.20;68.60
46356;DHT22;32066;49.474;11.106;2023-05-07T11:45:53;25.00;68.30
46356;DHT22;32066;49.474;11.106;2023-05-07T11:48:22;25.00;68.30
46356;DHT22;32066;49.474;11.106;2023-05-07T11:50:51;25.00;68.50
46356;DHT22;32066;49.474;11.106;2023-05-07T11:53:22;25.00;68.10
46356;DHT22;32066;49.474;11.106;2023-05-07T11:55:55;24.90;67.20
46356;DHT22;32066;49.474;11.106;2023-05-07T11:58:25;24.90;68.00
46356;DHT22;32066;49.474;11.106;2023-05-07T12:00:54;24.90;68.50
46356;DHT22;32066;49.474;11.106;2023-05-07T12:03:22;24.90;68.50
46356;DHT22;32066;49.474;11.106;2023-05-07T12:05:51;24.90;67.70
46356;DHT22;32066;49.474;11.106;2023-05-07T12:08:21;25.00;67.40
46356;DHT22;32066;49.474;11.106;2023-05-07T12:10:50;25.10;67.00
46356;DHT22;32066;49.474;11.106;2023-05-07T12:13:23;25.10;67.30
46356;DHT22;32066;49.474;11.106;2023-05-07T12:15:52;25.10;68.40
46356;DHT22;32066;49.474;11.106;2023-05-07T12:18:22;25.00;67.40
46356;DHT22;32066;49.474;11.106;2023-05-07T12:20:51;24.90;67.80
46356;DHT22;32066;49.474;11.106;2023-05-07T12:23:20;24.90;67.70
46356;DHT22;32066;49.474;11.106;2023-05-07T12:25:49;24.90;68.30
46356;DHT22;32066;49.474;11.106;2023-05-07T12:28:21;24.90;68.50
46356;DHT22;32066;49.474;11.106;2023-05-07T12:30:50;24.90;68.60
46356;DHT22;32066;49.474;11.106;2023-05-07T12:33:26;25.10;68.40
46356;DHT22;32066;49.474;11.106;2023-05-07T12:35:57;25.30;68.20
46356;DHT22;32066;49.474;11.106;2023-05-07T12:38:26;25.50;67.70
46356;DHT22;32066;49.474;11.106;2023-05-07T12:40:55;25.50;67.40
46356;DHT22;32066;49.474;11.106;2023-05-07T12:43:28;25.40;65.80
46356;DHT22;32066;49.474;11.106;2023-05-07T12:45:59;25.10;66.10
46356;DHT22;32066;49.474;11.106;2023-05-07T12:48:28;25.00;67.20
46356;DHT22;32066;49.474;11.106;2023-05-07T12:50:57;25.00;66.70
46356;DHT22;32066;49.474;11.106;2023-05-07T12:53:27;25.00;66.30
46356;DHT22;32066;49.474;11.106;2023-05-07T12:55:58;25.00;66.20
46356;DHT22;32066;49.474;11.106;2023-05-07T12:58:31;25.00;66.90
46356;DHT22;32066;49.474;11.106;2023-05-07T13:01:04;24.90;67.10
46356;DHT22;32066;49.474;11.106;2023-05-07T13:03:34;24.90;66.80
46356;DHT22;32066;49.474;11.106;2023-05-07T13:06:04;24.90;66.90
46356;DHT22;32066;49.474;11.106;2023-05-07T13:08:36;24.80;66.80
46356;DHT22;32066;49.474;11.106;2023-05-07T13:11:08;24.80;66.70
46356;DHT22;32066;49.474;11.106;2023-05-07T13:13:40;24.80;66.70
46356;DHT22;32066;49.474;11.106;2023-05-07T13:16:10;24.80;66.60
46356;DHT22;32066;49.474;11.106;2023-05-07T13:18:40;24.80;66.70
46356;DHT22;32066;49.474;11.106;2023-05-07T13:21:11;24.90;66.70
46356;DHT22;32066;49.474;11.106;2023-05-07T13:23:41;24.80;66.70
46356;DHT22;32066;49.474;11.106;2023-05-07T13:26:10;24.90;66.00
46356;DHT22;32066;49.474;11.106;2023-05-07T13:28:41;25.10;66.40
46356;DHT22;32066;49.474;11.106;2023-05-07T13:31:10;25.30;65.90
46356;DHT22;32066;49.474;11.106;2023-05-07T13:33:38;25.40;64.80
46356;DHT22;32066;49.474;11.106;2023-05-07T13:36:07;25.60;64.10
46356;DHT22;32066;49.474;11.106;2023-05-07T13:38:36;25.70;64.50
46356;DHT22;32066;49.474;11.106;2023-05-07T13:41:04;25.80;64.10
46356;DHT22;32066;49.474;11.106;2023-05-07T13:43:33;25.80;64.10
46356;DHT22;32066;49.474;11.106;2023-05-07T13:46:04;25.80;64.30
46356;DHT22;32066;49.474;11.106;2023-05-07T13:48:33;25.70;63.40
46356;DHT22;32066;49.474;11.106;2023-05-07T13:51:02;25.60;63.50
46356;DHT22;32066;49.474;11.106;2023-05-07T13:53:30;25.60;63.50
46356;DHT22;32066;49.474;11.106;2023-05-07T13:55:59;25.70;63.70
46356;DHT22;32066;49.474;11.106;2023-05-07T13:58:30;25.70;63.80
46356;DHT22;32066;49.474;11.106;2023-05-07T14:00:58;25.80;63.80
46356;DHT22;32066;49.474;11.106;2023-05-07T14:03:30;25.80;63.60
46356;DHT22;32066;49.474;11.106;2023-05-07T14:05:59;26.00;62.90
46356;DHT22;32066;49.474;11.106;2023-05-07T14:08:28;26.00;62.70
46356;DHT22;32066;49.474;11.106;2023-05-07T14:10:56;26.20;62.80
46356;DHT22;32066;49.474;11.106;2023-05-07T14:13:25;26.30;62.70
46356;DHT22;32066;49.474;11.106;2023-05-07T14:15:56;26.60;61.60
46356;DHT22;32066;49.474;11.106;2023-05-07T14:18:25;26.70;61.60
46356;DHT22;32066;49.474;11.106;2023-05-07T14:20:57;26.80;60.50
46356;DHT22;32066;49.474;11.106;2023-05-07T14:23:25;26.80;60.30
46356;DHT22;32066;49.474;11.106;2023-05-07T14:25:55;26.80;60.90
46356;DHT22;32066;49.474;11.106;2023-05-07T14:28:23;26.70;60.60
46356;DHT22;32066;49.474;11.106;2023-05-07T14:30:52;26.60;60.50
46356;DHT22;32066;49.474;11.106;2023-05-07T14:33:21;26.60;61.00
46356;DHT22;32066;49.474;11.106;2023-05-07T14:35:49;26.60;60.60
46356;DHT22;32066;49.474;11.106;2023-05-07T14:38:22;26.50;60.60
46356;DHT22;32066;49.474;11.106;2023-05-07T14:40:50;26.50;60.20
46356;DHT22;32066;49.474;11.106;2023-05-07T14:43:21;26.50;60.60
46356;DHT22;32066;49.474;11.106;2023-05-07T14:45:50;26.50;60.90
46356;DHT22;32066;49.474;11.106;2023-05-07T14:48:19;26.50;60.30
46356;DHT22;32066;49.474;11.106;2023-05-07T14:50:48;26.30;60.80
46356;DHT22;32066;49.474;11.106;2023-05-07T14:53:16;26.10;60.80
46356;DHT22;32066;49.474;11.106;2023-05-07T14:55:47;26.00;61.20
46356;DHT22;32066;49.474;11.106;2023-05-07T14:58:16;26.00;60.80
46356;DHT22;32066;49.474;11.106;2023-05-07T15:00:45;25.80;61.50
46356;DHT22;32066;49.474;11.106;2023-05-07T15:03:14;25.80;61.20
46356;DHT22;32066;49.474;11.106;2023-05-07T15:05:44;25.70;61.60
46356;DHT22;32066;49.474;11.106;2023-05-07T15:08:13;25.60;61.50
46356;DHT22;32066;49.474;11.106;2023-05-07T15:10:41;25.60;61.60
46356;DHT22;32066;49.474;11.106;2023-05-07T15:13:12;25.50;62.00
46356;DHT22;32066;49.474;11.106;2023-05-07T15:15:42;25.50;62.20
46356;DHT22;32066;49.474;11.106;2023-05-07T15:18:16;25.50;67.10
46356;DHT22;32066;49.474;11.106;2023-05-07T15:20:44;25.30;62.40
46356;DHT22;32066;49.474;11.106;2023-05-07T15:23:13;25.20;62.60
46356;DHT22;32066;49.474;11.106;2023-05-07T15:25:45;25.20;62.20
46356;DHT22;32066;49.474;11.106;2023-05-07T15:28:16;25.10;62.00
46356;DHT22;32066;49.474;11.106;2023-05-07T15:30:45;25.00;61.90
46356;DHT22;32066;49.474;11.106;2023-05-07T15:33:14;25.00;62.00
46356;DHT22;32066;49.474;11.106;2023-05-07T15:35:42;25.00;62.20
46356;DHT22;32066;49.474;11.106;2023-05-07T15:38:11;25.00;62.20
46356;DHT22;32066;49.474;11.106;2023-05-07T15:40:40;24.90;62.10
46356;DHT22;32066;49.474;11.106;2023-05-07T15:43:11;24.90;62.10